Airfield :
LOGIN :

Register | Disclaimer

   EN    FR    IT 

 










Legend :    VFR   Marginal VFR   IFR   Intensive IFR   Very Intensive IFR
Visi :
Ceiling :
>= 8 km
>= 3000ft
5 to 8 km
1000 to 3000 ft
1500m to 5 km
500 to 1000 ft
800 to 1500m
200 to 500 ft
< 800m
< 200 ft
Symbols :   Thunderstorms  Fog  Heavy snow  Heavy precipitations  Wind > 20 kt
SIGMETs :     Misc.  Thunderstorms  Icing  Turbulence  Mountain Waves  Volcanic Ashes






- Airport Elevation : 446 ft
- IATA code : VNE


LFRV - Vannes-Meucon

CURRENT METAR :
  • 180100Z AUTO 23012KT 190V270 9999 RA FEW021/// SCT031/// BKN038/// ///CB 11/10 Q1005

EXPIRED METARs :
  • 180030Z AUTO 22012KT 190V260 9999 BKN022/// BKN029/// BKN062/// ///CB 14/11 Q1005
  • 180000Z AUTO 22012G24KT 170V260 9999 SCT017/// BKN024/// BKN032/// ///CB 14/12 Q1005
  • 172330Z AUTO 21010KT 180V250 9999 BKN023/// BKN068/// ///CB 14/11 Q1005
  • 172300Z AUTO 22009KT 180V260 9999 FEW021 SCT027 BKN049 13/11 Q1006
  • 172230Z AUTO 22010KT 180V250 9999 BKN019/// BKN038/// BKN046/// ///TCU 14/11 Q1006
  • 172200Z AUTO 21010KT 180V250 9999 BKN021/// BKN026/// BKN074/// ///CB 13/11 Q1006

TAF N/A



MET'MAP, your aeronautical weather chart ! - Copyright ORBIFLY December 2007 - Disclaimer

ORBIFLY MET'MAP TEAM :

Programming & Development : Alexandra Zaïnal
Concept & Development : Baudouin d'Aumeries
Co-Development & Prog : Marc-Olivier Méhu
Technical & hardware support : Manuel Goepfert

Contact : metmap@orbifly.com




SOURCES & CREDITS :

   NOAA